| time (UTC) | temp F | wind direction | speed MPH | gust MPH | rain 1hr in | rain 24hr in | rain mn in | humidity % | barometer mb |
| 20260503201714 | 66 | 152 | 9.0 | 0.0 | 0.00 | 0.00 | 0.00 | 63 | 1015.2 |
| 20260503201214 | 66 | 107 | 10.0 | 0.0 | 0.00 | 0.00 | 0.00 | 64 | 1015.2 |
| 20260503200639 | 66 | 32 | 9.0 | 0.0 | 0.00 | 0.00 | 0.00 | 63 | 1015.2 |
| 20260503200213 | 66 | 120 | 10.0 | 0.0 | 0.00 | 0.00 | 0.00 | 63 | 1015.2 |
| 20260503195715 | 66 | 99 | 10.0 | 0.0 | 0.00 | 0.00 | 0.00 | 63 | 1015.2 |
| 20260503195140 | 66 | 129 | 10.0 | 0.0 | 0.00 | 0.00 | 0.00 | 65 | 1015.2 |
| 20260503194712 | 65 | 135 | 10.0 | 0.0 | 0.00 | 0.00 | 0.00 | 66 | 1015.2 |
| 20260503194214 | 65 | 333 | 9.0 | 0.0 | 0.00 | 0.00 | 0.00 | 65 | 1015.6 |
| 20260503193715 | 65 | 151 | 8.0 | 0.0 | 0.00 | 0.00 | 0.00 | 66 | 1015.6 |
| 20260503193209 | 64 | 111 | 9.0 | 0.0 | 0.00 | 0.00 | 0.00 | 67 | 1015.6 |
| 20260503192713 | 65 | 85 | 8.0 | 0.0 | 0.00 | 0.00 | 0.00 | 67 | 1015.6 |
| 20260503192212 | 64 | 154 | 8.0 | 0.0 | 0.00 | 0.00 | 0.00 | 68 | 1015.6 |
| 20260503191712 | 64 | 83 | 8.0 | 0.0 | 0.00 | 0.00 | 0.00 | 68 | 1015.6 |
| 20260503191138 | 64 | 132 | 9.0 | 0.0 | 0.00 | 0.00 | 0.00 | 68 | 1015.9 |
| 20260503190713 | 63 | 113 | 8.0 | 0.0 | 0.00 | 0.00 | 0.00 | 68 | 1015.9 |
| 20260503190210 | 63 | 148 | 8.0 | 0.0 | 0.00 | 0.00 | 0.00 | 70 | 1015.9 |
| 20260503185711 | 63 | 89 | 6.0 | 0.0 | 0.00 | 0.00 | 0.00 | 71 | 1015.9 |
| 20260503185213 | 63 | 334 | 6.0 | 0.0 | 0.00 | 0.00 | 0.00 | 71 | 1016.3 |
| 20260503184711 | 62 | 43 | 9.0 | 0.0 | 0.00 | 0.00 | 0.00 | 72 | 1016.3 |
| 20260503184212 | 62 | 121 | 9.0 | 0.0 | 0.00 | 0.00 | 0.00 | 73 | 1016.3 |
| 20260503183710 | 62 | 199 | 9.0 | 0.0 | 0.00 | 0.00 | 0.00 | 74 | 1016.3 |
| 20260503183237 | 62 | 182 | 8.0 | 0.0 | 0.00 | 0.00 | 0.00 | 73 | 1016.3 |
| 20260503182912 | 62 | 75 | 8.0 | 0.0 | 0.00 | 0.00 | 0.00 | 74 | 1016.3 |
| 20260503182212 | 62 | 119 | 7.0 | 0.0 | 0.00 | 0.00 | 0.00 | 74 | 1016.3 |
| 20260503181644 | 62 | 116 | 6.0 | 0.0 | 0.00 | 0.00 | 0.00 | 74 | 1016.3 |
| 20260503181209 | 62 | 114 | 9.0 | 0.0 | 0.00 | 0.00 | 0.00 | 74 | 1016.3 |
| 20260503180711 | 62 | 200 | 6.0 | 0.0 | 0.00 | 0.00 | 0.00 | 74 | 1016.3 |
| 20260503180211 | 62 | 120 | 6.0 | 0.0 | 0.00 | 0.00 | 0.00 | 74 | 1016.3 |
| 20260503175712 | 62 | 133 | 8.0 | 0.0 | 0.00 | 0.00 | 0.00 | 74 | 1016.3 |
| 20260503175211 | 62 | 78 | 9.0 | 0.0 | 0.00 | 0.00 | 0.00 | 75 | 1016.3 |
| 20260503174710 | 62 | 105 | 7.0 | 0.0 | 0.00 | 0.00 | 0.00 | 73 | 1016.3 |
| 20260503174214 | 62 | 147 | 9.0 | 0.0 | 0.00 | 0.00 | 0.00 | 74 | 1015.9 |
| 20260503173640 | 62 | 117 | 9.0 | 0.0 | 0.00 | 0.00 | 0.00 | 74 | 1016.3 |
| 20260503173211 | 62 | 158 | 10.0 | 0.0 | 0.00 | 0.00 | 0.00 | 74 | 1015.9 |
| 20260503172712 | 62 | 96 | 10.0 | 0.0 | 0.00 | 0.00 | 0.00 | 74 | 1015.9 |
| 20260503172210 | 62 | 160 | 8.0 | 0.0 | 0.00 | 0.00 | 0.00 | 74 | 1015.9 |
| 20260503171713 | 62 | 141 | 9.0 | 0.0 | 0.00 | 0.00 | 0.00 | 75 | 1015.6 |
| 20260503171216 | 62 | 147 | 11.0 | 0.0 | 0.00 | 0.00 | 0.00 | 75 | 1015.6 |
| 20260503170710 | 62 | 130 | 10.0 | 0.0 | 0.00 | 0.00 | 0.00 | 75 | 1015.9 |
| 20260503170211 | 62 | 118 | 8.0 | 0.0 | 0.00 | 0.00 | 0.00 | 76 | 1015.6 |
| 20260503160211 | 59 | 54 | 7.0 | 0.0 | 0.00 | 0.00 | 0.00 | 85 | 1015.6 |
| 20260503150636 | 58 | 306 | 8.0 | 0.0 | 0.00 | 0.00 | 0.00 | 88 | 1015.2 |
| 20260503150142 | 58 | 352 | 6.0 | 0.0 | 0.00 | 0.00 | 0.00 | 89 | 1015.2 |
| 20260503140138 | 57 | 308 | 4.0 | 0.0 | 0.00 | 0.00 | 0.00 | 91 | 1015.2 |
| 20260503131208 | 57 | 312 | 3.0 | 0.0 | 0.00 | 0.00 | 0.00 | 92 | 1014.6 |
| 20260503130654 | 57 | 65 | 2.0 | 0.0 | 0.00 | 0.00 | 0.00 | 92 | 1014.2 |
| 20260503130152 | 57 | 264 | 0.0 | 0.0 | 0.00 | 0.00 | 0.00 | 92 | 1014.2 |
| 20260503120150 | 57 | 141 | 6.0 | 0.0 | 0.00 | 0.00 | 0.00 | 92 | 1014.2 |
| 20260503110654 | 57 | 120 | 4.0 | 0.0 | 0.00 | 0.00 | 0.00 | 92 | 1013.9 |
| 20260503110146 | 57 | 99 | 5.0 | 0.0 | 0.00 | 0.00 | 0.00 | 92 | 1013.9 |
| 20260503100151 | 57 | 130 | 0.0 | 0.0 | 0.00 | 0.00 | 0.00 | 92 | 1014.6 |
| 20260503090154 | 58 | 133 | 7.0 | 0.0 | 0.00 | 0.00 | 0.00 | 90 | 1014.6 |
| 20260503081149 | 59 | 222 | 8.0 | 0.0 | 0.00 | 0.00 | 0.00 | 85 | 1014.6 |
| 20260503080651 | 59 | 121 | 8.0 | 0.0 | 0.00 | 0.00 | 0.00 | 84 | 1014.6 |
| 20260503080155 | 59 | 269 | 7.0 | 0.0 | 0.00 | 0.00 | 0.00 | 83 | 1014.6 |
| 20260503072648 | 61 | 285 | 0.0 | 0.0 | 0.00 | 0.00 | 0.00 | 78 | 1014.6 |
| 20260503072151 | 62 | 264 | 0.0 | 0.0 | 0.00 | 0.00 | 0.00 | 78 | 1014.6 |
| 20260503071650 | 61 | 210 | 0.0 | 0.0 | 0.00 | 0.00 | 0.00 | 79 | 1014.6 |
| 20260503071156 | 61 | 282 | 0.0 | 0.0 | 0.00 | 0.00 | 0.00 | 79 | 1014.2 |
| 20260503070649 | 61 | 316 | 0.0 | 0.0 | 0.00 | 0.00 | 0.00 | 79 | 1014.6 |
| 20260503070153 | 61 | 250 | 0.0 | 0.0 | 0.00 | 0.00 | 0.00 | 78 | 1014.6 |
| 20260503060149 | 65 | 211 | 6.0 | 0.0 | 0.00 | 0.00 | 0.00 | 69 | 1014.2 |
| 20260503054655 | 66 | 320 | 4.0 | 0.0 | 0.00 | 0.00 | 0.00 | 68 | 1014.2 |
| 20260503054155 | 67 | 259 | 3.0 | 0.0 | 0.00 | 0.00 | 0.00 | 68 | 1014.2 |
| 20260503053652 | 67 | 249 | 4.0 | 0.0 | 0.00 | 0.00 | 0.00 | 68 | 1013.9 |
| 20260503053150 | 67 | 283 | 6.0 | 0.0 | 0.00 | 0.00 | 0.00 | 67 | 1013.9 |
| 20260503052651 | 67 | 283 | 4.0 | 0.0 | 0.00 | 0.00 | 0.00 | 67 | 1013.9 |
| 20260503052149 | 67 | 229 | 4.0 | 0.0 | 0.00 | 0.00 | 0.00 | 67 | 1013.9 |
| 20260503051653 | 67 | 135 | 0.0 | 0.0 | 0.00 | 0.00 | 0.00 | 67 | 1013.9 |
| 20260503051151 | 67 | 74 | 1.0 | 0.0 | 0.00 | 0.00 | 0.00 | 66 | 1013.9 |
| 20260503050649 | 67 | 323 | 2.0 | 0.0 | 0.00 | 0.00 | 0.00 | 66 | 1013.9 |
| 20260503050250 | 67 | 137 | 2.0 | 0.0 | 0.00 | 0.00 | 0.00 | 66 | 1013.9 |
| 20260503045923 | 67 | 287 | 0.0 | 0.0 | 0.00 | 0.00 | 0.00 | 65 | 1013.5 |
| 20260503045157 | 67 | 292 | 3.0 | 0.0 | 0.00 | 0.00 | 0.00 | 65 | 1013.5 |
| 20260503044647 | 67 | 323 | 3.0 | 0.0 | 0.00 | 0.00 | 0.00 | 65 | 1013.5 |
| 20260503044151 | 67 | 276 | 3.0 | 0.0 | 0.00 | 0.00 | 0.00 | 65 | 1013.5 |
| 20260503043653 | 67 | 273 | 2.0 | 0.0 | 0.00 | 0.00 | 0.00 | 63 | 1013.5 |
| 20260503043148 | 68 | 206 | 2.0 | 0.0 | 0.00 | 0.00 | 0.00 | 63 | 1013.2 |
| 20260503042650 | 68 | 221 | 2.0 | 0.0 | 0.00 | 0.00 | 0.00 | 62 | 1013.2 |
| 20260503042152 | 68 | 274 | 0.0 | 0.0 | 0.00 | 0.00 | 0.00 | 60 | 1013.2 |
| 20260503041655 | 69 | 260 | 2.0 | 0.0 | 0.00 | 0.00 | 0.00 | 59 | 1013.2 |
| 20260503041152 | 69 | 302 | 3.0 | 0.0 | 0.00 | 0.00 | 0.00 | 59 | 1013.2 |
| 20260503040651 | 70 | 300 | 4.0 | 0.0 | 0.00 | 0.00 | 0.00 | 58 | 1013.2 |
| 20260503040151 | 70 | 332 | 4.0 | 0.0 | 0.00 | 0.00 | 0.00 | 58 | 1013.2 |
| 20260503035651 | 70 | 271 | 4.0 | 0.0 | 0.00 | 0.00 | 0.00 | 59 | 1013.2 |
| 20260503035152 | 71 | 279 | 3.0 | 0.0 | 0.00 | 0.00 | 0.00 | 59 | 1013.2 |
| 20260503034649 | 71 | 277 | 5.0 | 0.0 | 0.00 | 0.00 | 0.00 | 58 | 1012.9 |
| 20260503034323 | 71 | 230 | 4.0 | 0.0 | 0.00 | 0.00 | 0.00 | 58 | 1012.9 |
| 20260503032654 | 71 | 159 | 4.0 | 0.0 | 0.00 | 0.00 | 0.00 | 58 | 1012.9 |
| 20260503032155 | 71 | 310 | 4.0 | 0.0 | 0.00 | 0.00 | 0.00 | 58 | 1012.9 |
| 20260503031826 | 72 | 116 | 4.0 | 0.0 | 0.00 | 0.00 | 0.00 | 58 | 1012.9 |
| 20260503031154 | 72 | 38 | 3.0 | 0.0 | 0.00 | 0.00 | 0.00 | 57 | 1012.9 |
| 20260503030656 | 72 | 186 | 5.0 | 0.0 | 0.00 | 0.00 | 0.00 | 57 | 1012.9 |
| 20260503030148 | 72 | 239 | 5.0 | 0.0 | 0.00 | 0.00 | 0.00 | 57 | 1012.9 |
| 20260503025651 | 72 | 188 | 5.0 | 0.0 | 0.00 | 0.00 | 0.00 | 57 | 1012.5 |
| 20260503025152 | 73 | 187 | 6.0 | 0.0 | 0.00 | 0.00 | 0.00 | 56 | 1012.5 |
| 20260503024653 | 73 | 154 | 6.0 | 0.0 | 0.00 | 0.00 | 0.00 | 56 | 1012.5 |
| 20260503024148 | 73 | 7 | 6.0 | 0.0 | 0.00 | 0.00 | 0.00 | 56 | 1012.5 |
| 20260503023653 | 73 | 224 | 6.0 | 0.0 | 0.00 | 0.00 | 0.00 | 56 | 1012.2 |
| 20260503023155 | 73 | 228 | 6.0 | 0.0 | 0.00 | 0.00 | 0.00 | 56 | 1012.2 |
| 20260503022653 | 74 | 14 | 6.0 | 0.0 | 0.00 | 0.00 | 0.00 | 55 | 1012.2 |
| 20260503022152 | 74 | 27 | 4.0 | 0.0 | 0.00 | 0.00 | 0.00 | 54 | 1012.2 |
| 20260503021650 | 75 | 247 | 7.0 | 0.0 | 0.00 | 0.00 | 0.00 | 54 | 1012.2 |
| 20260503021149 | 75 | 274 | 7.0 | 0.0 | 0.00 | 0.00 | 0.00 | 53 | 1012.2 |
| 20260503020655 | 76 | 337 | 5.0 | 0.0 | 0.00 | 0.00 | 0.00 | 52 | 1012.2 |
| 20260503020153 | 76 | 262 | 5.0 | 0.0 | 0.00 | 0.00 | 0.00 | 51 | 1012.2 |
| 20260503015653 | 77 | 230 | 6.0 | 0.0 | 0.00 | 0.00 | 0.00 | 50 | 1012.2 |
| 20260503015153 | 78 | 274 | 5.0 | 0.0 | 0.00 | 0.00 | 0.00 | 49 | 1012.2 |
| 20260503014655 | 78 | 7 | 6.0 | 0.0 | 0.00 | 0.00 | 0.00 | 47 | 1011.9 |
| 20260503014154 | 78 | 356 | 6.0 | 0.0 | 0.00 | 0.00 | 0.00 | 48 | 1011.9 |
| 20260503013654 | 79 | 107 | 8.0 | 0.0 | 0.00 | 0.00 | 0.00 | 47 | 1011.9 |
| 20260503013157 | 79 | 48 | 8.0 | 0.0 | 0.00 | 0.00 | 0.00 | 47 | 1011.9 |
| 20260503012649 | 80 | 19 | 6.0 | 0.0 | 0.00 | 0.00 | 0.00 | 46 | 1011.9 |
| 20260503012149 | 80 | 30 | 5.0 | 0.0 | 0.00 | 0.00 | 0.00 | 44 | 1011.9 |
| 20260503011648 | 80 | 284 | 8.0 | 0.0 | 0.00 | 0.00 | 0.00 | 45 | 1011.9 |
| 20260503011154 | 80 | 28 | 9.0 | 0.0 | 0.00 | 0.00 | 0.00 | 45 | 1011.5 |
| 20260503010657 | 81 | 24 | 9.0 | 0.0 | 0.00 | 0.00 | 0.00 | 44 | 1011.9 |
| 20260503010155 | 82 | 8 | 6.0 | 0.0 | 0.00 | 0.00 | 0.00 | 44 | 1011.5 |
| 20260503005654 | 82 | 78 | 9.0 | 0.0 | 0.00 | 0.00 | 0.00 | 44 | 1011.5 |
| 20260503005155 | 82 | 126 | 11.0 | 0.0 | 0.00 | 0.00 | 0.00 | 43 | 1011.9 |
| 20260503004655 | 83 | 125 | 11.0 | 0.0 | 0.00 | 0.00 | 0.00 | 43 | 1011.5 |
| 20260503004157 | 83 | 44 | 8.0 | 0.0 | 0.00 | 0.00 | 0.00 | 42 | 1011.9 |
| 20260503003655 | 83 | 129 | 8.0 | 0.0 | 0.00 | 0.00 | 0.00 | 42 | 1011.5 |
| 20260503003150 | 83 | 133 | 11.0 | 0.0 | 0.00 | 0.00 | 0.00 | 42 | 1011.5 |
| 20260503002656 | 83 | 114 | 14.0 | 0.0 | 0.00 | 0.00 | 0.00 | 43 | 1011.5 |
| 20260503002127 | 83 | 175 | 14.0 | 0.0 | 0.00 | 0.00 | 0.00 | 42 | 1011.5 |
| 20260503001653 | 84 | 114 | 12.0 | 0.0 | 0.00 | 0.00 | 0.00 | 41 | 1011.5 |
| 20260503001150 | 84 | 291 | 15.0 | 0.0 | 0.00 | 0.00 | 0.00 | 40 | 1011.5 |
| 20260503000652 | 85 | 132 | 15.0 | 0.0 | 0.00 | 0.00 | 0.00 | 40 | 1011.5 |
| 20260503000154 | 86 | 150 | 9.0 | 0.0 | 0.00 | 0.00 | 0.00 | 39 | 1011.2 |
| 20260502235652 | 86 | 91 | 13.0 | 0.0 | 0.00 | 0.00 | 0.00 | 39 | 1011.2 |
| 20260502235158 | 86 | 148 | 10.0 | 0.0 | 0.00 | 0.00 | 0.00 | 39 | 1011.5 |
| 20260502234654 | 86 | 106 | 10.0 | 0.0 | 0.00 | 0.00 | 0.00 | 39 | 1011.5 |
| 20260502234150 | 87 | 23 | 9.0 | 0.0 | 0.00 | 0.00 | 0.00 | 38 | 1011.5 |
| 20260502233656 | 87 | 86 | 9.0 | 0.0 | 0.00 | 0.00 | 0.00 | 37 | 1011.2 |
| 20260502233155 | 88 | 52 | 11.0 | 0.0 | 0.00 | 0.00 | 0.00 | 37 | 1011.5 |
| 20260502232657 | 88 | 335 | 11.0 | 0.0 | 0.00 | 0.00 | 0.00 | 35 | 1011.2 |
| 20260502232151 | 88 | 83 | 11.0 | 0.0 | 0.00 | 0.00 | 0.00 | 35 | 1011.5 |
| 20260502231655 | 88 | 153 | 14.0 | 0.0 | 0.00 | 0.00 | 0.00 | 35 | 1011.2 |
| 20260502231155 | 88 | 327 | 14.0 | 0.0 | 0.00 | 0.00 | 0.00 | 35 | 1011.5 |
| 20260502230654 | 88 | 118 | 8.0 | 0.0 | 0.00 | 0.00 | 0.00 | 34 | 1011.5 |
| 20260502230149 | 88 | 252 | 9.0 | 0.0 | 0.00 | 0.00 | 0.00 | 31 | 1011.5 |
| 20260502225651 | 88 | 253 | 7.0 | 0.0 | 0.00 | 0.00 | 0.00 | 30 | 1011.5 |
| 20260502225154 | 90 | 353 | 9.0 | 0.0 | 0.00 | 0.00 | 0.00 | 29 | 1011.5 |
| 20260502224655 | 91 | 287 | 9.0 | 0.0 | 0.00 | 0.00 | 0.00 | 29 | 1011.5 |
| 20260502224155 | 91 | 304 | 8.0 | 0.0 | 0.00 | 0.00 | 0.00 | 28 | 1011.5 |
| 20260502223749 | 91 | 34 | 9.0 | 0.0 | 0.00 | 0.00 | 0.00 | 28 | 1011.9 |
| 20260502223425 | 90 | 262 | 13.0 | 0.0 | 0.00 | 0.00 | 0.00 | 28 | 1011.9 |
| 20260502222657 | 90 | 291 | 13.0 | 0.0 | 0.00 | 0.00 | 0.00 | 28 | 1011.9 |
| 20260502222154 | 91 | 330 | 9.0 | 0.0 | 0.00 | 0.00 | 0.00 | 28 | 1012.2 |
| 20260502221649 | 91 | 106 | 9.0 | 0.0 | 0.00 | 0.00 | 0.00 | 28 | 1012.2 |
| 20260502221151 | 91 | 350 | 9.0 | 0.0 | 0.00 | 0.00 | 0.00 | 26 | 1012.2 |
| 20260502220653 | 91 | 15 | 10.0 | 0.0 | 0.00 | 0.00 | 0.00 | 27 | 1012.2 |
| 20260502220152 | 92 | 278 | 7.0 | 0.0 | 0.00 | 0.00 | 0.00 | 26 | 1012.2 |
| 20260502215652 | 92 | 241 | 9.0 | 0.0 | 0.00 | 0.00 | 0.00 | 26 | 1012.5 |
| 20260502215151 | 91 | 26 | 11.0 | 0.0 | 0.00 | 0.00 | 0.00 | 26 | 1012.5 |
| 20260502214651 | 90 | 301 | 10.0 | 0.0 | 0.00 | 0.00 | 0.00 | 25 | 1012.5 |
| 20260502214125 | 91 | 342 | 11.0 | 0.0 | 0.00 | 0.00 | 0.00 | 24 | 1012.9 |
| 20260502213653 | 91 | 352 | 11.0 | 0.0 | 0.00 | 0.00 | 0.00 | 24 | 1012.5 |
| 20260502213152 | 92 | 351 | 8.0 | 0.0 | 0.00 | 0.00 | 0.00 | 24 | 1012.9 |
| 20260502212648 | 91 | 274 | 9.0 | 0.0 | 0.00 | 0.00 | 0.00 | 23 | 1012.9 |
| 20260502212138 | 90 | 309 | 9.0 | 0.0 | 0.00 | 0.00 | 0.00 | 26 | 1012.9 |
| 20260502211643 | 91 | 21 | 9.0 | 0.0 | 0.00 | 0.00 | 0.00 | 26 | 1012.9 |
| 20260502211140 | 91 | 15 | 14.0 | 0.0 | 0.00 | 0.00 | 0.00 | 26 | 1013.2 |
| 20260502210641 | 91 | 44 | 10.0 | 0.0 | 0.00 | 0.00 | 0.00 | 26 | 1012.9 |
| 20260502210138 | 91 | 309 | 10.0 | 0.0 | 0.00 | 0.00 | 0.00 | 26 | 1013.2 |
| 20260502205645 | 90 | 341 | 11.0 | 0.0 | 0.00 | 0.00 | 0.00 | 26 | 1013.2 |
| 20260502205138 | 91 | 311 | 10.0 | 0.0 | 0.00 | 0.00 | 0.00 | 27 | 1013.2 |
| 20260502204644 | 91 | 236 | 10.0 | 0.0 | 0.00 | 0.00 | 0.00 | 28 | 1013.2 |
| 20260502204142 | 91 | 88 | 7.0 | 0.0 | 0.00 | 0.00 | 0.00 | 28 | 1013.2 |
| 20260502203614 | 90 | 145 | 7.0 | 0.0 | 0.00 | 0.00 | 0.00 | 28 | 1013.2 |
| 20260502203138 | 90 | 24 | 7.0 | 0.0 | 0.00 | 0.00 | 0.00 | 33 | 1013.2 |
| 20260502202642 | 88 | 328 | 7.0 | 0.0 | 0.00 | 0.00 | 0.00 | 33 | 1013.2 |
| 20260502202143 | 88 | 162 | 6.0 | 0.0 | 0.00 | 0.00 | 0.00 | 34 | 1013.2 |